Flight Track Log - Related Links

Times and Time Zones

All times are in EDT time to prevent confusion due to time zone crossing. See the N830QS flight status page for this flight to view local times or setup timezone preferences in your user account.

Time Position Orientation Groundspeed Altitude Reporting Facility
EDT Latitude Longitude Course Direction KTS MPH feet Rate Location/Type
Wed 01:03:19 PM 33.6167 -111.9167 285° West 158 182 2,400  Level Phoenix TRACON
Wed 01:04:46 PM 33.6328 -111.9894 285° West 187 215 5,400 1,812 Climbing Albuquerque Center
Wed 01:05:48 PM 33.6864 -111.9650 21° North 223 257 6,900 2,468 Climbing Albuquerque Center
Wed 01:06:50 PM 33.7589 -111.9231 26° Northeast 240 276 10,500 3,097 Climbing Albuquerque Center
Wed 01:07:52 PM 33.8311 -111.9108 North 262 302 13,300 2,194 Climbing Albuquerque Center
Wed 01:09:00 PM 33.9002 -111.7905 55° Northeast  Level Estimated
Wed 01:09:56 PM 33.9969 -111.8797 55° Northeast 305 351 17,300  Level Albuquerque Center
Wed 01:10:58 PM 34.0706 -111.8133 37° Northeast 319 367 18,800 1,258 Climbing Albuquerque Center
Wed 01:12:00 PM 34.1419 -111.7256 45° Northeast 330 380 19,900 968 Climbing Albuquerque Center
Wed 01:13:02 PM 34.2047 -111.6511 44° Northeast 345 397 20,800 960 Climbing Albuquerque Center
Wed 01:14:05 PM 34.2750 -111.5661 45° Northeast 354 407 21,900 1,008 Climbing Albuquerque Center
Wed 01:15:07 PM 34.3467 -111.4811 44° Northeast 359 413 22,900 1,016 Climbing Albuquerque Center
Wed 01:16:09 PM 34.4308 -111.3789 45° Northeast 359 413 24,000 919 Climbing Albuquerque Center
Wed 01:17:11 PM 34.5006 -111.2944 45° Northeast 356 410 24,800 871 Climbing Albuquerque Center
Wed 01:18:13 PM 34.5717 -111.2081 45° Northeast 360 414 25,800 919 Climbing Albuquerque Center
Wed 01:19:15 PM 34.6419 -111.1231 45° Northeast 359 413 26,700 774 Climbing Albuquerque Center
Wed 01:20:17 PM 34.7122 -111.0364 45° Northeast 359 413 27,400 677 Climbing Albuquerque Center
Wed 01:21:19 PM 34.7833 -110.9486 45° Northeast 362 417 28,100 774 Climbing Albuquerque Center
Wed 01:22:21 PM 34.8761 -110.8347 45° Northeast 389 448 29,000 774 Climbing Albuquerque Center
Wed 01:23:23 PM 34.9561 -110.7331 46° Northeast 407 468 29,700 726 Climbing Albuquerque Center
Wed 01:24:25 PM 35.0339 -110.6364 45° Northeast 414 476 30,500 919 Climbing Albuquerque Center
Wed 01:25:27 PM 35.1269 -110.5242 45° Northeast 419 482 31,600 1,016 Climbing Albuquerque Center
Wed 01:26:29 PM 35.2039 -110.4267 46° Northeast 417 480 32,600 1,016 Climbing Albuquerque Center
Wed 01:27:31 PM 35.2958 -110.3125 45° Northeast 419 482 33,700 1,016 Climbing Albuquerque Center
Wed 01:28:33 PM 35.3742 -110.2158 45° Northeast 418 481 34,700 629 Climbing Albuquerque Center
Wed 01:29:35 PM 35.4661 -110.1000 46° Northeast 423 487 35,000 145 Climbing Albuquerque Center
Wed 01:30:37 PM 35.5478 -109.9956 46° Northeast 437 503 35,000 435 Level Albuquerque Center
Wed 01:31:39 PM 35.6450 -109.8750 45° Northeast 442 509 35,900 871 Climbing Albuquerque Center
Wed 01:32:41 PM 35.7192 -109.7714 49° Northeast 427 491 36,800 919 Climbing Albuquerque Center
Wed 01:33:43 PM 35.7789 -109.6578 57° Northeast 416 479 37,800 1,016 Climbing Albuquerque Center
Wed 01:34:45 PM 35.8431 -109.5225 60° Northeast 411 473 38,900 968 Climbing Albuquerque Center
Wed 01:35:47 PM 35.8981 -109.4103 59° Northeast 403 464 39,800 871 Climbing Albuquerque Center
Wed 01:36:49 PM 35.9606 -109.2781 60° Northeast 400 460 40,700 581 Climbing Albuquerque Center
Wed 01:37:51 PM 36.0153 -109.1650 59° Northeast 399 459 41,000 145 Climbing Albuquerque Center
Wed 01:38:53 PM 36.0769 -109.0389 59° Northeast 426 490 41,000  Level Albuquerque Center
Wed 01:39:55 PM 36.1381 -108.9122 59° Northeast 427 491 41,000  Level Albuquerque Center
Wed 01:40:56 PM 36.2067 -108.7697 59° Northeast 437 503 41,000  Level Albuquerque Center
Wed 01:41:58 PM 36.2731 -108.6247 60° Northeast 435 501 41,000  Level Albuquerque Center
Wed 01:43:00 PM 36.3319 -108.5003 60° Northeast 435 501 41,000  Level Albuquerque Center
Wed 01:44:02 PM 36.3992 -108.3542 60° Northeast 436 502 41,000  Level Albuquerque Center
Wed 01:45:04 PM 36.4556 -108.2325 60° Northeast 429 494 41,000  Level Albuquerque Center
Wed 01:46:06 PM 36.5122 -108.1117 60° Northeast 424 488 41,000  Level Albuquerque Center
Wed 01:47:08 PM 36.5781 -107.9686 60° Northeast 425 489 41,000  Level Albuquerque Center
Wed 01:48:38 PM 36.6614 -107.7869 60° Northeast 421 484 41,000  Level Denver Center
Wed 01:49:40 PM 36.7272 -107.6447 60° Northeast 424 488 41,000  Level Denver Center
Wed 01:50:43 PM 36.7817 -107.5219 61° Northeast 423 487 41,000  Level Denver Center
Wed 01:51:45 PM 36.8464 -107.3825 60° Northeast 418 481 41,000  Level Denver Center
Wed 01:52:47 PM 36.9017 -107.2597 61° Northeast 422 486 41,000  Level Denver Center
Wed 01:53:49 PM 36.9661 -107.1164 61° Northeast 423 487 41,000  Level Denver Center
Wed 01:54:51 PM 37.0208 -106.9936 61° Northeast 423 487 41,000  Level Denver Center
Wed 01:55:53 PM 37.0842 -106.8497 61° Northeast 423 487 41,000  Level Denver Center
Wed 01:56:55 PM 37.1406 -106.7281 60° Northeast 423 487 41,000  Level Denver Center
Wed 01:57:57 PM 37.2019 -106.5858 62° Northeast 417 480 41,000  Level Denver Center
Wed 01:59:00 PM 37.2556 -106.4586 62° Northeast  Level FlightAware Approximate
Wed 02:00:01 PM 37.3186 -106.3203 62° Northeast 418 481 41,000  Level Denver Center
Wed 02:01:03 PM 37.3714 -106.1956 62° Northeast 421 484 41,000  Level Denver Center
Wed 02:02:05 PM 37.4222 -106.0731 62° Northeast 415 478 41,000  Level Denver Center
Wed 02:03:07 PM 37.4869 -105.9292 60° Northeast 421 484 41,000  Level Denver Center
Wed 02:04:09 PM 37.5400 -105.8075 61° Northeast 416 479 41,000  Level Denver Center
Wed 02:05:11 PM 37.6050 -105.6597 61° Northeast 421 484 41,000  Level Denver Center
Wed 02:06:14 PM 37.6567 -105.5361 62° Northeast 416 479 41,000  Level Denver Center
Wed 02:07:16 PM 37.7189 -105.3914 61° Northeast 419 482 41,000  Level Denver Center
Wed 02:08:18 PM 37.7728 -105.2675 61° Northeast 419 482 41,000  Level Denver Center
Wed 02:09:20 PM 37.8331 -105.1203 63° Northeast 421 484 41,000  Level Denver Center
Wed 02:10:22 PM 37.8861 -104.9950 62° Northeast 421 484 41,000  Level Denver Center
Wed 02:11:24 PM 37.9392 -104.8692 62° Northeast 423 487 41,000  Level Denver Center
Wed 02:12:26 PM 38.0014 -104.7228 62° Northeast 421 484 41,000  Level Denver Center
Wed 02:13:28 PM 38.0542 -104.5964 62° Northeast 421 484 41,000  Level Denver Center
Wed 02:14:30 PM 38.1150 -104.4483 62° Northeast 423 487 41,000  Level Denver Center
Wed 02:15:32 PM 38.1675 -104.3217 62° Northeast 421 484 41,000  Level Denver Center
Wed 02:16:34 PM 38.2281 -104.1739 62° Northeast 420 483 41,000  Level Denver Center
Wed 02:17:37 PM 38.2806 -104.0469 62° Northeast 421 484 41,000  Level Denver Center
Wed 02:18:38 PM 38.3406 -103.8986 63° Northeast 420 483 41,000  Level Denver Center
Wed 02:19:40 PM 38.3917 -103.7719 63° Northeast 419 482 41,000  Level Denver Center
Wed 02:20:42 PM 38.4428 -103.6453 63° Northeast 419 482 41,000  Level Denver Center
Wed 02:21:45 PM 38.5017 -103.4969 63° Northeast 420 483 41,000  Level Denver Center
Wed 02:22:47 PM 38.5517 -103.3714 63° Northeast 415 478 41,000  Level Denver Center
Wed 02:23:49 PM 38.6119 -103.2219 63° Northeast 418 481 41,000  Level Denver Center
Wed 02:24:51 PM 38.6633 -103.0906 63° Northeast 416 479 41,000  Level Denver Center
Wed 02:25:53 PM 38.7156 -102.9589 63° Northeast 415 478 41,000  Level Denver Center
Wed 02:26:55 PM 38.7681 -102.8258 63° Northeast 419 482 41,000  Level Denver Center
Wed 02:27:57 PM 38.8292 -102.6694 63° Northeast 416 479 41,000  Level Denver Center
Wed 02:28:59 PM 38.8783 -102.5431 63° Northeast 421 484 41,000  Level Denver Center
Wed 02:30:01 PM 38.9303 -102.4106 63° Northeast 425 489 41,000  Level Denver Center
Wed 02:31:03 PM 38.9894 -102.2564 64° Northeast 428 493 41,000  Level Denver Center
Wed 02:32:05 PM 39.0392 -102.1256 64° Northeast 426 490 41,000  Level Denver Center
Wed 02:33:07 PM 39.0986 -101.9728 63° Northeast 427 491 41,000  Level Denver Center
Wed 02:34:09 PM 39.1489 -101.8419 64° Northeast 428 493 41,000 -339 Level Denver Center
Wed 02:35:11 PM 39.2075 -101.6825 65° Northeast 431 496 40,300 -823 Descending Denver Center
Wed 02:36:13 PM 39.2567 -101.5519 64° Northeast 426 490 39,300 -1,016 Descending Denver Center
Wed 02:37:15 PM 39.3144 -101.4000 64° Northeast 422 486 38,200 -968 Descending Denver Center
Wed 02:38:17 PM 39.3636 -101.2678 64° Northeast 426 490 37,300 -581 Descending Denver Center
Wed 02:39:19 PM 39.4128 -101.1350 64° Northeast 429 494 37,000 -145 Descending Denver Center
Wed 02:40:21 PM 39.4714 -100.9769 64° Northeast 436 502 37,000  Level Denver Center
Wed 02:41:23 PM 39.5217 -100.8392 65° Northeast 442 509 37,000  Level Denver Center
Wed 02:42:25 PM 39.5806 -100.6778 65° Northeast 444 511 37,000  Level Denver Center
Wed 02:43:27 PM 39.6300 -100.5406 65° Northeast 441 507 37,000  Level Denver Center
Wed 02:44:29 PM 39.6897 -100.3789 64° Northeast 445 512 37,000 -290 Level Denver Center
Wed 02:45:31 PM 39.7394 -100.2389 65° Northeast 446 513 36,400 -1,016 Descending Denver Center
Wed 02:46:33 PM 39.7931 -100.0908 65° Northeast 439 505 34,900 -1,403 Descending Denver Center
Wed 02:47:35 PM 39.8447 -99.9464 65° Northeast 439 505 33,500 -919 Descending Denver Center
Wed 02:48:37 PM 39.8956 -99.8042 65° Northeast 435 501 33,000 -244 Descending Denver Center
Wed 02:49:38 PM 39.9567 -99.6303 65° Northeast 440 506 33,000  Level Denver Center
Wed 02:50:40 PM 40.0083 -99.4825 65° Northeast 449 517 33,000  Level Denver Center
Wed 02:51:43 PM 40.0592 -99.3378 65° Northeast 441 507 33,000  Level Denver Center
Wed 02:52:45 PM 40.1100 -99.1900 66° East 445 512 33,000  Level Denver Center
Wed 02:53:47 PM 40.1611 -99.0436 65° Northeast 444 511 33,000  Level Denver Center
Wed 02:54:48 PM 40.2117 -98.8961 66° East 445 512 33,000  Level Denver Center
Wed 02:55:52 PM 40.2717 -98.7214 66° East 445 512 33,000  Level Minneapolis Center
Wed 02:57:06 PM 40.3217 -98.5747 66° East 444 511 33,000 -882 Level Minneapolis Center
Wed 02:58:08 PM 40.3797 -98.4014 66° East 438 504 31,000 -2,095 Descending Minneapolis Center
Wed 02:59:12 PM 40.4281 -98.2553 66° East 438 504 28,600 -2,619 Descending Minneapolis Center
Wed 03:00:14 PM 40.4900 -98.0725 66° East 454 522 25,500 -2,758 Descending Minneapolis Center
Wed 03:01:16 PM 40.5378 -97.9278 66° East 442 509 22,900 -2,516 Descending Minneapolis Center
Wed 03:02:18 PM 40.5839 -97.7897 66° East 422 486 20,300 -2,516 Descending Minneapolis Center
Wed 03:03:20 PM 40.6269 -97.6594 66° East 399 459 17,700 -2,644 Descending Minneapolis Center
Wed 03:04:16 PM 40.6475 -97.5228 79° East 366 421 15,100 -2,615 Descending Minneapolis Center
Wed 03:05:17 PM 40.6889 -97.4011 66° East 367 422 12,600 -2,311 Descending Minneapolis Center
Wed 03:06:18 PM 40.7250 -97.2933 66° East 326 375 10,400 -2,033 Descending Minneapolis Center
Wed 03:07:18 PM 40.7731 -97.1817 60° Northeast 321 369 8,500 -1,826 Descending Minneapolis Center
Wed 03:08:13 PM 40.8142 -97.0925 59° Northeast 315 362 6,900 -1,500 Descending Minneapolis Center
Wed 03:09:14 PM 40.8550 -97.0003 60° Northeast 292 336 5,600 -1,377 Descending Minneapolis Center
Wed 03:10:15 PM 40.8786 -96.9017 72° East 281 323 4,100 -1,636 Descending Minneapolis Center
Wed 03:11:15 PM 40.8772 -96.8081 91° East 214 246 2,300 -1,000 Descending Minneapolis Center
Wed 03:12:39 PM 40.8622 -96.7561 111° Southeast 225 259 1,700 -429 Descending Minneapolis Center
Wed 03:14:00 PM 40.8500 -96.7500 180° South  Level FlightAware Approximate

Login

Don't have an account? Register now (free) for customized features, flight alerts, and more!